createdAt,value
2017-12-01T00:02:04.818Z,42.63
2017-12-01T00:04:33.715Z,43.30
2017-12-01T00:07:01.861Z,42.40
2017-12-01T00:09:29.997Z,46.73
2017-12-01T00:11:58.165Z,44.40
2017-12-01T00:14:26.336Z,43.30
2017-12-01T00:16:54.496Z,45.67
2017-12-01T00:19:22.635Z,45.67
2017-12-01T00:21:50.776Z,44.00
2017-12-01T00:24:18.923Z,46.43
2017-12-01T00:26:47.088Z,45.27
2017-12-01T00:29:15.224Z,49.07
2017-12-01T00:31:43.372Z,47.10
2017-12-01T00:34:11.631Z,46.83
2017-12-01T00:36:40.597Z,46.73
2017-12-01T00:39:08.735Z,49.13
2017-12-01T00:41:37.107Z,43.83
2017-12-01T00:44:05.388Z,47.77
2017-12-01T01:58:26.600Z,44.70
2017-12-01T02:00:55.483Z,42.07
2017-12-01T02:03:23.643Z,42.87
2017-12-01T02:05:51.762Z,40.97
2017-12-01T02:08:19.931Z,36.03
2017-12-01T02:10:48.798Z,38.27
2017-12-01T02:13:16.940Z,43.50
2017-12-01T02:15:45.119Z,37.97
2017-12-01T02:18:13.273Z,42.33
2017-12-01T02:20:41.395Z,40.37
2017-12-01T02:23:09.554Z,46.43
2017-12-01T02:25:38.522Z,44.00
2017-12-01T02:28:06.623Z,41.67
2017-12-01T02:30:34.748Z,36.20
2017-12-01T02:33:02.879Z,38.10
2017-12-01T02:35:31.029Z,41.73
2017-12-01T02:37:59.216Z,37.90
2017-12-01T02:40:27.337Z,42.70
2017-12-01T02:42:55.478Z,34.17
2017-12-01T02:45:24.374Z,35.93
2017-12-01T02:47:52.516Z,36.40
2017-12-01T02:50:20.641Z,37.83
2017-12-01T02:52:48.804Z,37.70
2017-12-01T02:55:16.923Z,47.07
2017-12-01T02:57:45.059Z,39.27
2017-12-01T03:00:13.203Z,38.50
2017-12-01T03:02:41.337Z,37.90
2017-12-01T03:05:09.482Z,34.60
2017-12-01T03:07:37.613Z,43.70
2017-12-01T03:10:06.534Z,37.90
2017-12-01T03:12:34.672Z,39.20
2017-12-01T03:15:02.833Z,37.23
2017-12-01T03:17:30.951Z,41.77
2017-12-01T03:19:59.140Z,40.73
2017-12-01T03:22:27.252Z,40.20
2017-12-01T03:24:55.378Z,41.83
2017-12-01T03:27:23.498Z,42.33
2017-12-01T03:29:51.686Z,45.23
2017-12-01T03:32:20.596Z,43.57
2017-12-01T03:34:49.494Z,41.33
2017-12-01T03:37:17.624Z,39.13
2017-12-01T03:39:45.770Z,41.27
2017-12-01T03:42:13.970Z,41.27
2017-12-01T03:44:42.136Z,39.87
2017-12-01T03:47:10.279Z,45.23
2017-12-01T03:49:38.471Z,38.63
2017-12-01T03:52:06.608Z,40.80
2017-12-01T03:54:34.766Z,39.00
2017-12-01T03:57:03.666Z,42.90
2017-12-01T03:59:32.580Z,42.13
2017-12-01T04:02:00.725Z,39.97
2017-12-01T04:04:28.863Z,39.30
2017-12-01T04:06:57.036Z,40.83
2017-12-01T04:09:25.228Z,34.20
2017-12-01T04:11:53.370Z,40.63
2017-12-01T04:14:21.506Z,37.87
2017-12-01T04:16:49.632Z,44.57
2017-12-01T04:19:17.755Z,40.83
2017-12-01T04:21:48.421Z,36.33
2017-12-01T04:24:16.539Z,38.23
2017-12-01T04:26:45.470Z,41.57
2017-12-01T04:29:13.599Z,39.07
2017-12-01T04:31:42.530Z,40.30
2017-12-01T04:34:10.668Z,41.67
2017-12-01T04:36:38.810Z,44.27
2017-12-01T04:39:07.113Z,43.73
2017-12-01T04:41:35.250Z,44.40
2017-12-01T04:44:03.395Z,32.83
2017-12-01T04:46:31.556Z,44.07
2017-12-01T04:48:59.698Z,42.03
2017-12-01T04:51:27.861Z,45.00
2017-12-01T04:53:55.998Z,40.97
2017-12-01T04:56:24.156Z,41.00
2017-12-01T04:58:52.289Z,45.53
2017-12-01T05:01:20.440Z,42.63
2017-12-01T05:03:48.546Z,45.53
2017-12-01T05:06:17.464Z,41.43
2017-12-01T05:08:45.600Z,47.50
2017-12-01T05:11:14.542Z,45.77
2017-12-01T05:13:42.668Z,47.93
2017-12-01T05:16:10.811Z,47.03
2017-12-01T05:18:38.940Z,47.80
2017-12-01T05:21:07.095Z,48.93
2017-12-01T05:23:36.007Z,47.93
2017-12-01T05:26:04.912Z,44.17
2017-12-01T05:28:33.037Z,42.93
2017-12-01T05:31:01.188Z,50.53
2017-12-01T05:33:29.522Z,51.87
2017-12-01T05:35:57.856Z,53.17
2017-12-01T05:38:26.021Z,50.67
2017-12-01T05:40:54.195Z,52.93
2017-12-01T05:43:22.306Z,51.60
2017-12-01T05:45:51.239Z,48.43
2017-12-01T05:48:19.386Z,54.20
2017-12-01T05:50:48.301Z,45.10
2017-12-01T05:53:16.437Z,52.90
2017-12-01T05:55:45.340Z,53.50
2017-12-01T05:58:14.259Z,50.87
2017-12-01T06:00:42.395Z,54.57
2017-12-01T06:03:11.308Z,53.10
2017-12-01T06:05:39.431Z,54.97
2017-12-01T06:08:07.599Z,57.30
2017-12-01T06:10:36.559Z,62.37
2017-12-01T06:13:04.723Z,61.60
2017-12-01T06:15:32.894Z,50.97
2017-12-01T06:18:01.098Z,59.80
2017-12-01T06:20:29.243Z,51.70
2017-12-01T06:22:57.376Z,48.73
2017-12-01T06:25:25.490Z,48.70
2017-12-01T06:27:53.637Z,47.80
2017-12-01T06:30:22.527Z,49.53
2017-12-01T06:32:51.686Z,51.27
2017-12-01T06:35:19.902Z,50.33
2017-12-01T06:37:48.818Z,58.27
2017-12-01T06:40:16.967Z,52.67
2017-12-01T06:42:45.554Z,61.10
2017-12-01T06:45:14.457Z,51.60
2017-12-01T06:47:43.370Z,56.70
2017-12-01T06:50:11.521Z,52.43
2017-12-01T06:52:40.432Z,49.40
2017-12-01T06:55:08.555Z,51.33
2017-12-01T06:57:37.806Z,47.53
2017-12-01T07:00:05.976Z,55.57
2017-12-01T07:02:39.871Z,60.37
2017-12-01T07:05:07.997Z,50.00
2017-12-01T07:07:36.167Z,57.33
2017-12-01T07:10:04.283Z,47.00
2017-12-01T07:12:32.459Z,57.80
2017-12-01T07:15:00.597Z,58.43
2017-12-01T07:17:28.711Z,57.47
2017-12-01T07:19:56.870Z,60.07
2017-12-01T07:22:25.755Z,53.67
2017-12-01T07:24:54.676Z,52.90
2017-12-01T07:27:22.786Z,63.97
2017-12-01T07:29:50.952Z,64.33
2017-12-01T07:32:19.106Z,56.53
2017-12-01T07:34:47.241Z,56.47
2017-12-01T07:37:16.130Z,67.60
2017-12-01T07:39:45.035Z,53.10
2017-12-01T07:42:13.931Z,57.20
2017-12-01T07:45:00.890Z,59.57
2017-12-01T07:47:28.998Z,57.40
2017-12-01T07:49:58.188Z,48.40
2017-12-01T07:52:26.346Z,54.33
2017-12-01T07:54:54.502Z,53.63
2017-12-01T07:57:22.634Z,54.73
2017-12-01T07:59:50.790Z,55.40
2017-12-01T08:02:19.688Z,50.40
2017-12-01T08:04:48.598Z,54.47
2017-12-01T08:07:16.717Z,48.93
2017-12-01T08:09:44.935Z,54.27
2017-12-01T08:12:13.833Z,51.73
2017-12-01T08:14:42.738Z,52.00
2017-12-01T08:17:22.483Z,51.70
2017-12-01T08:19:50.651Z,51.27
2017-12-01T08:22:30.467Z,57.40
2017-12-01T08:25:11.127Z,56.07
2017-12-01T08:27:39.248Z,51.40
2017-12-01T08:30:07.401Z,60.30
2017-12-01T08:32:35.514Z,57.10
2017-12-01T08:35:03.671Z,63.97
2017-12-01T08:37:31.805Z,56.77
2017-12-01T08:40:00.710Z,54.20
2017-12-01T08:42:28.872Z,64.47
2017-12-01T08:44:57.778Z,54.37
2017-12-01T08:47:25.909Z,60.97
2017-12-01T08:49:54.063Z,65.07
2017-12-01T08:52:22.194Z,70.50
2017-12-01T08:54:50.368Z,61.33
2017-12-01T08:57:18.498Z,57.70
2017-12-01T08:59:46.652Z,73.90
2017-12-01T09:02:14.766Z,63.63
2017-12-01T09:04:43.674Z,56.17
2017-12-01T09:07:11.794Z,57.23
2017-12-01T09:09:39.935Z,66.63
2017-12-01T09:12:08.070Z,56.43
2017-12-01T09:14:36.225Z,57.27
2017-12-01T09:17:05.446Z,54.80
2017-12-01T09:19:33.582Z,52.00
2017-12-01T09:22:01.717Z,55.13
2017-12-01T09:24:30.696Z,60.20
2017-12-01T09:26:58.856Z,53.03
2017-12-01T09:29:26.972Z,52.73
2017-12-01T09:31:55.123Z,49.80
2017-12-01T09:34:24.029Z,47.17
2017-12-01T09:36:52.184Z,52.23
2017-12-01T09:39:21.094Z,51.77
2017-12-01T09:41:49.223Z,52.90
2017-12-01T09:44:17.362Z,43.97
2017-12-01T09:46:45.506Z,55.43
2017-12-01T09:49:13.650Z,47.67
2017-12-01T09:51:41.798Z,56.30
2017-12-01T09:54:09.931Z,43.87
2017-12-01T09:56:38.075Z,45.80
2017-12-01T09:59:06.988Z,48.87
2017-12-01T10:01:35.120Z,46.67
2017-12-01T10:04:03.298Z,49.47
2017-12-01T10:06:31.443Z,47.60
2017-12-01T10:08:59.569Z,51.03
2017-12-01T10:11:27.795Z,44.00
2017-12-01T10:13:55.906Z,52.70
2017-12-01T10:16:24.834Z,46.93
2017-12-01T10:18:52.954Z,46.37
2017-12-01T10:21:21.161Z,51.50
2017-12-01T10:23:50.047Z,47.97
2017-12-01T10:26:18.999Z,45.07
2017-12-01T10:28:47.128Z,47.73
2017-12-01T10:31:15.267Z,45.03
2017-12-01T10:33:43.418Z,47.20
2017-12-01T10:36:11.606Z,47.47
2017-12-01T10:38:40.518Z,46.10
2017-12-01T10:41:09.442Z,46.20
2017-12-01T10:43:37.563Z,41.70
2017-12-01T10:46:05.722Z,45.77
2017-12-01T10:48:33.867Z,43.53
2017-12-01T10:51:02.054Z,52.87
2017-12-01T10:53:30.168Z,44.20
2017-12-01T10:55:58.329Z,42.97
2017-12-01T10:58:26.430Z,46.17
2017-12-01T11:00:54.579Z,46.70
2017-12-01T11:03:22.702Z,38.83
2017-12-01T11:05:50.872Z,45.10
2017-12-01T11:08:19.010Z,42.03
2017-12-01T11:10:47.164Z,41.87
2017-12-01T11:13:15.283Z,39.77
2017-12-01T11:15:43.455Z,45.27
2017-12-01T11:18:11.634Z,46.00
2017-12-01T11:20:39.781Z,39.23
2017-12-01T11:23:07.946Z,42.57
2017-12-01T11:25:36.070Z,47.67
2017-12-01T11:28:04.214Z,49.10
2017-12-01T11:30:32.370Z,41.27
2017-12-01T11:33:01.267Z,41.87
2017-12-01T11:35:30.223Z,40.13
2017-12-01T11:37:58.368Z,43.33
2017-12-01T11:40:26.474Z,47.97
2017-12-01T11:42:54.614Z,39.73
2017-12-01T11:45:22.751Z,40.30
2017-12-01T11:47:51.658Z,41.10
2017-12-01T11:50:19.819Z,47.30
2017-12-01T11:52:48.720Z,39.30
2017-12-01T11:55:16.861Z,40.50
2017-12-01T11:57:44.993Z,39.17
2017-12-01T12:00:13.138Z,38.35
2017-12-01T12:02:42.035Z,42.37
2017-12-01T12:05:10.160Z,37.77
2017-12-01T12:07:38.303Z,43.13
2017-12-01T12:10:06.433Z,42.30
2017-12-01T12:12:35.353Z,43.80
2017-12-01T12:15:03.495Z,43.50
2017-12-01T12:17:31.643Z,44.23
2017-12-01T12:19:59.783Z,40.40
2017-12-01T12:22:27.926Z,39.13
2017-12-01T12:24:56.833Z,43.47
2017-12-01T12:27:24.974Z,44.20
2017-12-01T12:29:53.089Z,43.00
2017-12-01T12:32:21.248Z,45.07
2017-12-01T12:34:49.380Z,45.00
2017-12-01T12:37:17.513Z,46.87
2017-12-01T12:39:45.668Z,43.73
2017-12-01T12:42:13.865Z,48.37
2017-12-01T12:44:42.028Z,43.77
2017-12-01T12:47:10.147Z,43.50
2017-12-01T12:49:38.295Z,45.90
2017-12-01T12:52:06.514Z,46.17
2017-12-01T12:54:34.668Z,48.07
2017-12-01T12:57:02.812Z,44.13
2017-12-01T12:59:30.962Z,48.27
2017-12-01T13:01:59.119Z,46.23
2017-12-01T13:04:28.066Z,49.73
2017-12-01T13:06:56.200Z,43.90
2017-12-01T13:09:24.351Z,40.67
2017-12-01T13:11:53.580Z,40.47
2017-12-01T13:14:22.579Z,40.40
2017-12-01T13:16:50.716Z,43.73
2017-12-01T13:19:19.627Z,40.90
2017-12-01T13:21:47.746Z,38.93
2017-12-01T13:24:15.886Z,38.97
2017-12-01T13:26:45.912Z,42.07
2017-12-01T13:29:14.719Z,41.08
2017-12-01T13:31:42.830Z,42.03
2017-12-01T13:34:11.248Z,63.47
2017-12-01T13:36:38.854Z,43.50
2017-12-01T13:39:07.028Z,41.07
2017-12-01T13:41:35.137Z,38.77
2017-12-01T13:44:04.035Z,42.10
2017-12-01T13:46:32.167Z,41.80
2017-12-01T13:49:00.331Z,38.70
2017-12-01T13:51:28.464Z,37.80
2017-12-01T13:53:56.740Z,38.27
2017-12-01T13:56:24.986Z,37.00
2017-12-01T13:58:53.943Z,40.67
2017-12-01T14:01:22.091Z,48.60
2017-12-01T14:03:50.221Z,38.47
2017-12-01T14:06:19.119Z,43.10
2017-12-01T14:08:48.044Z,42.50
2017-12-01T14:11:16.168Z,37.50
2017-12-01T14:13:44.322Z,39.70
2017-12-01T14:16:12.435Z,41.50
2017-12-01T14:18:40.570Z,40.53
2017-12-01T14:21:08.711Z,41.60
2017-12-01T14:23:36.893Z,36.20
2017-12-01T14:26:05.063Z,45.43
2017-12-01T14:28:33.226Z,41.53
2017-12-01T14:31:01.366Z,35.93
2017-12-01T14:33:30.374Z,37.23
2017-12-01T14:35:59.307Z,34.63
2017-12-01T14:38:27.427Z,36.77
2017-12-01T14:40:55.563Z,37.63
2017-12-01T14:43:23.686Z,41.80
2017-12-01T14:45:52.582Z,40.80
2017-12-01T14:48:21.480Z,42.27
2017-12-01T14:50:49.636Z,44.43
2017-12-01T14:53:18.529Z,35.13
2017-12-01T14:55:47.476Z,36.83
2017-12-01T14:58:15.607Z,43.23
2017-12-01T15:00:44.526Z,37.83
2017-12-01T15:03:12.660Z,42.73
2017-12-01T15:05:40.822Z,47.80
2017-12-01T15:08:09.269Z,38.60
2017-12-01T15:10:37.518Z,42.97
2017-12-01T15:13:05.810Z,42.97
2017-12-01T15:15:33.959Z,47.57
2017-12-01T15:18:02.235Z,43.37
2017-12-01T15:20:30.382Z,42.53
2017-12-01T15:22:59.273Z,27.23
2017-12-01T15:25:28.183Z,24.97
2017-12-01T15:27:57.092Z,36.23
2017-12-01T15:30:25.503Z,35.60
2017-12-01T15:32:53.785Z,35.50
2017-12-01T15:35:22.133Z,31.13
2017-12-01T15:37:50.369Z,25.63
2017-12-01T15:40:19.257Z,33.27
2017-12-01T15:42:48.202Z,31.27
2017-12-01T15:45:16.323Z,32.23
2017-12-01T15:47:45.235Z,26.37
2017-12-01T15:50:13.390Z,25.17
2017-12-01T15:52:41.589Z,26.60
2017-12-01T15:55:09.706Z,23.10
2017-12-01T15:57:38.168Z,25.80
2017-12-01T16:00:06.405Z,28.33
2017-12-01T16:02:40.122Z,28.97
2017-12-01T16:05:08.448Z,28.07
2017-12-01T16:07:36.632Z,28.50
2017-12-01T16:10:05.639Z,27.43
2017-12-01T16:12:33.836Z,26.50
2017-12-01T16:15:02.028Z,24.73
2017-12-01T16:17:30.220Z,29.23
2017-12-01T16:19:58.577Z,30.60
2017-12-01T16:22:26.836Z,27.53
2017-12-01T16:24:55.733Z,31.20
2017-12-01T16:27:23.933Z,29.27
2017-12-01T16:29:52.428Z,26.37
2017-12-01T16:32:20.604Z,28.40
2017-12-01T16:34:49.061Z,25.97
2017-12-01T16:37:17.348Z,28.67
2017-12-01T16:39:45.487Z,31.63
2017-12-01T16:42:13.639Z,23.53
2017-12-01T16:44:42.572Z,26.87
2017-12-01T16:47:10.768Z,27.67
2017-12-01T16:49:38.890Z,27.00
2017-12-01T16:52:07.834Z,24.40
2017-12-01T16:54:35.957Z,24.97
2017-12-01T16:57:04.137Z,23.57
2017-12-01T16:59:32.318Z,25.13
2017-12-01T17:02:00.490Z,26.03
2017-12-01T17:04:28.638Z,22.10
2017-12-01T17:06:56.776Z,27.33
2017-12-01T17:09:25.240Z,23.87
2017-12-01T17:11:53.772Z,29.07
2017-12-01T17:14:22.175Z,24.53
2017-12-01T17:16:51.045Z,21.97
2017-12-01T17:19:19.759Z,19.33
2017-12-01T17:21:48.163Z,28.63
2017-12-01T17:24:16.463Z,23.30
2017-12-01T17:26:44.609Z,23.00
2017-12-01T17:29:12.776Z,29.43
2017-12-01T17:31:40.901Z,22.07
2017-12-01T17:34:09.074Z,23.20
2017-12-01T17:36:37.201Z,28.50
2017-12-01T17:39:05.380Z,25.00
2017-12-01T17:41:33.509Z,29.73
2017-12-01T17:44:02.453Z,26.37
2017-12-01T17:46:30.602Z,28.20
2017-12-01T17:48:58.742Z,26.17
2017-12-01T17:51:27.653Z,27.57
2017-12-01T17:53:56.590Z,33.20
2017-12-01T17:56:24.724Z,31.83
2017-12-01T17:58:52.887Z,38.50
2017-12-01T18:01:21.782Z,33.33
2017-12-01T18:03:49.968Z,36.03
2017-12-01T18:06:18.098Z,36.23
2017-12-01T18:08:46.254Z,32.00
2017-12-01T18:11:14.466Z,37.97
2017-12-01T18:13:42.638Z,40.47
2017-12-01T18:16:11.531Z,29.47
2017-12-01T18:18:40.442Z,37.83
2017-12-01T18:21:08.584Z,35.47
2017-12-01T18:23:37.534Z,37.20
2017-12-01T18:26:05.724Z,35.87
2017-12-01T18:28:33.957Z,38.60
2017-12-01T18:31:02.108Z,32.03
2017-12-01T18:33:31.036Z,36.93
2017-12-01T18:35:59.163Z,40.90
2017-12-01T18:38:27.331Z,45.20
2017-12-01T18:40:56.269Z,36.77
2017-12-01T18:43:24.420Z,41.87
2017-12-01T18:45:52.571Z,35.23
2017-12-01T18:48:20.726Z,37.20
2017-12-01T18:50:48.880Z,33.37
2017-12-01T18:53:17.035Z,34.90
2017-12-01T18:55:45.157Z,35.93
2017-12-01T18:58:13.328Z,39.90
2017-12-01T19:00:41.455Z,45.70
2017-12-01T19:03:09.600Z,37.60
2017-12-01T19:05:38.721Z,41.50
2017-12-01T19:08:06.888Z,43.23
2017-12-01T19:10:35.047Z,36.00
2017-12-01T19:13:03.959Z,36.87
2017-12-01T19:15:32.110Z,43.43
2017-12-01T19:18:00.268Z,42.53
2017-12-01T19:20:28.413Z,36.13
2017-12-01T19:22:56.545Z,36.47
2017-12-01T19:25:25.477Z,36.17
2017-12-01T19:27:53.611Z,45.10
2017-12-01T19:30:22.556Z,43.30
2017-12-01T19:32:51.551Z,32.47
2017-12-01T19:35:19.703Z,31.30
2017-12-01T19:37:47.844Z,39.53
2017-12-01T19:40:16.762Z,34.27
2017-12-01T19:42:44.900Z,37.63
2017-12-01T19:45:13.837Z,37.00
2017-12-01T19:47:41.972Z,39.70
2017-12-01T19:50:10.168Z,38.80
2017-12-01T19:52:39.044Z,41.07
2017-12-01T19:55:07.225Z,42.67
2017-12-01T19:57:35.363Z,39.93
2017-12-01T20:00:03.534Z,43.33
2017-12-01T20:02:37.228Z,44.97
2017-12-01T20:05:05.408Z,39.27
2017-12-01T20:07:33.532Z,41.90
2017-12-01T20:10:01.666Z,35.53
2017-12-01T20:12:30.586Z,42.23
2017-12-01T20:14:58.750Z,41.63
2017-12-01T20:17:27.665Z,37.53
2017-12-01T20:19:55.794Z,40.40
2017-12-01T20:22:23.944Z,40.37
2017-12-01T20:24:52.074Z,38.80
2017-12-01T20:27:20.231Z,40.00
2017-12-01T20:29:49.150Z,40.53
2017-12-01T20:32:17.294Z,39.90
2017-12-01T20:34:46.379Z,40.23
2017-12-01T20:37:15.298Z,44.97
2017-12-01T20:39:43.445Z,49.23
2017-12-01T20:42:11.583Z,40.73
2017-12-01T20:44:39.715Z,42.13
2017-12-01T20:47:08.637Z,43.63
2017-12-01T20:49:36.780Z,42.97
2017-12-01T20:52:04.937Z,48.20
2017-12-01T20:54:33.823Z,40.40
2017-12-01T20:57:02.755Z,46.23
2017-12-01T20:59:30.895Z,45.80
2017-12-01T21:01:59.092Z,52.10
2017-12-01T21:04:27.221Z,44.97
2017-12-01T21:06:55.376Z,43.00
2017-12-01T21:09:23.548Z,40.80
2017-12-01T21:11:51.723Z,41.37
2017-12-01T21:14:19.871Z,45.30
2017-12-01T21:16:48.128Z,42.93
2017-12-01T21:19:16.322Z,47.93
2017-12-01T21:21:44.437Z,41.80
2017-12-01T21:24:13.630Z,48.47
2017-12-01T21:26:41.767Z,45.87
2017-12-01T21:29:09.926Z,39.27
2017-12-01T21:31:38.136Z,43.47
2017-12-01T21:34:06.310Z,44.90
2017-12-01T21:36:34.440Z,44.60
2017-12-01T21:39:02.591Z,46.20
2017-12-01T21:41:31.508Z,50.23
2017-12-01T21:43:59.750Z,45.60
2017-12-01T21:46:27.944Z,42.60
2017-12-01T21:48:56.118Z,42.87
2017-12-01T21:51:25.016Z,43.00
2017-12-01T21:53:53.938Z,44.73
2017-12-01T21:56:22.085Z,39.43
2017-12-01T21:58:51.068Z,37.43
2017-12-01T22:01:19.265Z,42.17
2017-12-01T22:03:47.423Z,42.60
2017-12-01T22:06:16.337Z,39.67
2017-12-01T22:08:44.555Z,37.13
2017-12-01T22:11:12.653Z,41.77
2017-12-01T22:13:40.843Z,40.93
2017-12-01T22:16:09.736Z,46.83
2017-12-01T22:18:37.910Z,45.27
2017-12-01T22:21:06.821Z,37.53
2017-12-01T22:23:35.037Z,46.17
2017-12-01T22:26:03.146Z,40.07
2017-12-01T22:28:31.320Z,41.10
2017-12-01T22:31:00.212Z,40.23
2017-12-01T22:33:28.383Z,40.27
2017-12-01T22:35:56.519Z,38.70
2017-12-01T22:38:25.495Z,37.60
2017-12-01T22:40:53.637Z,43.53
2017-12-01T22:43:21.816Z,36.40
2017-12-01T22:45:49.966Z,41.50
2017-12-01T22:48:18.306Z,45.93
2017-12-01T22:50:46.502Z,42.00
2017-12-01T22:53:14.634Z,38.70
2017-12-01T22:55:42.794Z,39.87
2017-12-01T22:58:10.977Z,38.97
2017-12-01T23:00:39.117Z,36.67
2017-12-01T23:03:07.287Z,39.27
2017-12-01T23:05:36.213Z,35.77
2017-12-01T23:08:04.379Z,35.33
2017-12-01T23:10:32.535Z,38.30
2017-12-01T23:13:00.689Z,35.83
2017-12-01T23:15:29.669Z,36.10
2017-12-01T23:17:57.943Z,40.47
2017-12-01T23:20:26.159Z,39.00
2017-12-01T23:22:55.188Z,35.30
2017-12-01T23:25:23.388Z,36.10
2017-12-01T23:27:51.499Z,38.33
2017-12-01T23:30:19.696Z,39.80
2017-12-01T23:32:47.857Z,38.87
2017-12-01T23:35:15.994Z,41.37
2017-12-01T23:37:44.208Z,47.13
2017-12-01T23:40:12.450Z,38.00
2017-12-01T23:42:41.345Z,42.77
2017-12-01T23:45:10.331Z,44.00
2017-12-01T23:47:38.475Z,42.63
2017-12-01T23:50:06.646Z,53.47
2017-12-01T23:52:34.798Z,42.53
2017-12-01T23:55:02.940Z,45.93
2017-12-01T23:57:31.083Z,53.77
